Time;durP1;ratioP1;P1;durP2;ratioP2;P2;SDS_P1;SDS_P2;PMS_P1;PMS_P2;Temp;Humidity;BMP_temperature;BMP_pressure;BME280_temperature;BME280_humidity;BME280_pressure;Samples;Min_cycle;Max_cycle;Signal;HPM_P1;HPM_P2
2023/03/08 00:02:52;;;;;;;53.37;26.10;;;;;;;;;;10361647;28;20034;-80
2023/03/08 00:07:53;;;;;;;60.67;29.30;;;;;;;;;;10362221;28;20033;-79
2023/03/08 00:12:54;;;;;;;45.97;21.60;;;;;;;;;;10361720;28;20464;-80
2023/03/08 00:17:56;;;;;;;47.77;23.60;;;;;;;;;;10362456;28;20045;-78
2023/03/08 00:22:57;;;;;;;43.70;20.27;;;;;;;;;;10361431;28;20493;-80
2023/03/08 00:27:58;;;;;;;47.10;23.60;;;;;;;;;;10361505;28;20037;-78
2023/03/08 00:32:59;;;;;;;52.03;24.97;;;;;;;;;;10360715;28;20050;-79
2023/03/08 00:38:00;;;;;;;42.93;21.27;;;;;;;;;;10361205;28;20034;-80
2023/03/08 00:43:01;;;;;;;43.40;21.50;;;;;;;;;;10360947;28;20026;-81
2023/03/08 00:48:01;;;;;;;46.57;23.63;;;;;;;;;;10369012;28;20391;-78
2023/03/08 00:53:02;;;;;;;41.97;19.50;;;;;;;;;;10368416;28;20021;-80
2023/03/08 00:58:04;;;;;;;38.73;20.00;;;;;;;;;;10367551;28;20026;-79
2023/03/08 01:03:05;;;;;;;40.47;20.60;;;;;;;;;;10368479;28;20026;-80
2023/03/08 01:08:06;;;;;;;42.67;20.87;;;;;;;;;;10367872;28;20092;-79
2023/03/08 01:13:07;;;;;;;39.00;18.43;;;;;;;;;;10367848;28;20021;-79
2023/03/08 01:18:08;;;;;;;37.20;18.67;;;;;;;;;;10367518;28;20029;-78
2023/03/08 01:23:09;;;;;;;40.90;20.97;;;;;;;;;;10367839;28;20571;-80
2023/03/08 01:28:10;;;;;;;40.97;19.17;;;;;;;;;;10366895;28;20040;-81
2023/03/08 01:33:11;;;;;;;41.37;18.83;;;;;;;;;;10366882;28;20058;-80
2023/03/08 01:38:12;;;;;;;39.90;19.63;;;;;;;;;;10367732;28;20030;-78
2023/03/08 01:43:22;;;;;;;41.23;19.00;;;;;;;;;;10366818;28;20500;-78
2023/03/08 01:48:25;;;;;;;35.17;18.43;;;;;;;;;;10366839;28;20048;-78
2023/03/08 01:53:27;;;;;;;36.87;19.37;;;;;;;;;;10365251;28;20037;-78
2023/03/08 01:58:28;;;;;;;46.50;19.10;;;;;;;;;;10364809;28;20038;-78
2023/03/08 02:03:29;;;;;;;41.03;20.20;;;;;;;;;;10366279;28;20036;-78
2023/03/08 02:08:31;;;;;;;38.63;19.73;;;;;;;;;;10366611;28;20125;-78
2023/03/08 02:13:32;;;;;;;43.03;20.03;;;;;;;;;;10366121;28;20030;-78
2023/03/08 02:18:33;;;;;;;40.63;19.97;;;;;;;;;;10366504;28;20051;-78
2023/03/08 02:23:34;;;;;;;37.60;16.87;;;;;;;;;;10366468;28;20041;-77
2023/03/08 02:28:35;;;;;;;33.87;17.60;;;;;;;;;;10364968;28;20049;-81
2023/03/08 02:33:36;;;;;;;36.03;17.87;;;;;;;;;;10365376;28;20382;-78
2023/03/08 02:38:37;;;;;;;38.60;18.30;;;;;;;;;;10364927;28;20034;-78
2023/03/08 02:43:38;;;;;;;34.53;17.57;;;;;;;;;;10363337;28;20057;-78
2023/03/08 02:48:39;;;;;;;38.17;17.50;;;;;;;;;;10364264;28;20048;-80
2023/03/08 02:53:40;;;;;;;36.50;18.13;;;;;;;;;;10364380;28;20029;-80
2023/03/08 02:58:41;;;;;;;34.03;16.53;;;;;;;;;;10364344;28;20437;-78
2023/03/08 03:03:43;;;;;;;31.63;14.83;;;;;;;;;;10363588;28;20037;-78
2023/03/08 03:08:45;;;;;;;32.60;16.00;;;;;;;;;;10362963;28;20057;-79
2023/03/08 03:13:46;;;;;;;33.13;16.40;;;;;;;;;;10364074;28;20409;-78
2023/03/08 03:18:47;;;;;;;31.63;15.80;;;;;;;;;;10364092;28;20049;-78
2023/03/08 03:23:48;;;;;;;34.57;17.10;;;;;;;;;;10363529;28;20036;-78
2023/03/08 03:28:51;;;;;;;30.10;15.70;;;;;;;;;;10362662;28;20496;-78
2023/03/08 03:33:52;;;;;;;34.87;15.73;;;;;;;;;;10363098;28;20022;-78
2023/03/08 03:38:53;;;;;;;33.40;17.80;;;;;;;;;;10362183;28;20437;-78
2023/03/08 03:43:54;;;;;;;31.87;15.00;;;;;;;;;;10363586;28;20063;-81
2023/03/08 03:48:55;;;;;;;29.97;14.03;;;;;;;;;;10362435;28;20046;-80
2023/03/08 03:53:57;;;;;;;29.53;15.77;;;;;;;;;;10361839;28;20727;-78
2023/03/08 03:58:58;;;;;;;28.27;15.23;;;;;;;;;;10362047;28;20033;-78
2023/03/08 04:03:59;;;;;;;30.97;15.03;;;;;;;;;;10358972;28;20046;-79
2023/03/08 04:09:02;;;;;;;31.03;14.30;;;;;;;;;;10362115;28;20056;-78
2023/03/08 04:14:03;;;;;;;36.37;15.87;;;;;;;;;;10361607;28;20456;-78
2023/03/08 04:19:05;;;;;;;28.43;13.70;;;;;;;;;;10360362;28;20032;-81
2023/03/08 04:24:06;;;;;;;28.47;14.90;;;;;;;;;;10361803;28;20041;-78
2023/03/08 04:29:07;;;;;;;25.57;12.50;;;;;;;;;;10360797;28;20437;-78
2023/03/08 04:34:08;;;;;;;30.93;13.30;;;;;;;;;;10360994;28;20049;-78
2023/03/08 04:39:09;;;;;;;28.37;14.17;;;;;;;;;;10360838;28;20029;-81
2023/03/08 04:44:10;;;;;;;30.30;15.00;;;;;;;;;;10360055;28;20111;-78
2023/03/08 04:49:11;;;;;;;27.47;14.53;;;;;;;;;;10361647;28;20096;-78
2023/03/08 04:54:12;;;;;;;27.13;13.37;;;;;;;;;;10360080;28;20486;-80
2023/03/08 04:59:13;;;;;;;27.97;13.17;;;;;;;;;;10360504;28;20038;-78
2023/03/08 05:04:14;;;;;;;27.13;13.27;;;;;;;;;;10359690;28;20030;-80
2023/03/08 05:09:15;;;;;;;25.77;13.80;;;;;;;;;;10360502;28;20470;-78
2023/03/08 05:14:16;;;;;;;27.73;13.07;;;;;;;;;;10360436;28;20080;-80
2023/03/08 05:19:17;;;;;;;21.20;10.53;;;;;;;;;;10359986;28;20410;-78
2023/03/08 05:24:18;;;;;;;23.77;11.50;;;;;;;;;;10359746;28;20036;-78
2023/03/08 05:29:19;;;;;;;25.50;12.40;;;;;;;;;;10359980;28;20089;-78
2023/03/08 05:34:20;;;;;;;22.50;11.80;;;;;;;;;;10365845;28;20038;-79
2023/03/08 05:39:22;;;;;;;26.37;12.77;;;;;;;;;;10367142;28;20029;-78
2023/03/08 05:44:23;;;;;;;25.90;11.60;;;;;;;;;;10367020;28;20715;-78
2023/03/08 05:49:24;;;;;;;23.13;10.67;;;;;;;;;;10367087;28;20049;-77
2023/03/08 05:54:25;;;;;;;30.27;12.63;;;;;;;;;;10366382;28;20405;-79
2023/03/08 05:59:26;;;;;;;29.30;13.20;;;;;;;;;;10365871;28;20080;-78
2023/03/08 06:04:27;;;;;;;30.07;13.57;;;;;;;;;;10368061;28;20034;-78
2023/03/08 06:09:28;;;;;;;33.63;15.07;;;;;;;;;;10365420;28;20037;-78
2023/03/08 06:14:29;;;;;;;34.97;16.03;;;;;;;;;;10365277;28;20041;-78
2023/03/08 06:19:30;;;;;;;30.67;13.63;;;;;;;;;;10364959;28;20042;-80
2023/03/08 06:24:31;;;;;;;38.97;16.57;;;;;;;;;;10365411;28;20375;-82
2023/03/08 06:29:32;;;;;;;28.03;14.37;;;;;;;;;;10365258;28;20050;-77
2023/03/08 06:34:33;;;;;;;26.53;14.40;;;;;;;;;;10364478;28;20030;-77
2023/03/08 06:39:34;;;;;;;37.63;16.43;;;;;;;;;;10364984;28;20718;-80
2023/03/08 06:44:35;;;;;;;28.97;14.50;;;;;;;;;;10363748;28;20095;-78
2023/03/08 06:49:36;;;;;;;47.07;18.90;;;;;;;;;;10364715;28;20760;-78
2023/03/08 06:54:37;;;;;;;39.43;18.83;;;;;;;;;;10364635;28;20469;-78
2023/03/08 06:59:38;;;;;;;29.60;15.23;;;;;;;;;;10365472;28;20149;-80
2023/03/08 07:04:39;;;;;;;27.87;12.97;;;;;;;;;;10362948;28;20025;-80
2023/03/08 07:09:40;;;;;;;25.10;13.67;;;;;;;;;;10362454;28;20042;-80
2023/03/08 07:14:41;;;;;;;29.33;15.77;;;;;;;;;;10363275;28;20030;-79
2023/03/08 07:19:42;;;;;;;30.33;15.50;;;;;;;;;;10363617;28;20033;-79
2023/03/08 07:24:46;;;;;;;28.43;15.03;;;;;;;;;;10363266;28;20521;-79
2023/03/08 07:29:47;;;;;;;30.97;14.47;;;;;;;;;;10361597;28;20057;-78
2023/03/08 07:34:48;;;;;;;28.93;15.30;;;;;;;;;;10361847;28;20042;-78
2023/03/08 07:39:50;;;;;;;31.40;15.53;;;;;;;;;;10362211;28;20091;-82
2023/03/08 07:44:51;;;;;;;30.53;15.23;;;;;;;;;;10361651;28;20014;-79
2023/03/08 07:49:52;;;;;;;30.90;15.47;;;;;;;;;;10365355;28;20486;-78
2023/03/08 07:54:53;;;;;;;37.80;18.03;;;;;;;;;;10361453;28;20026;-82
2023/03/08 07:59:54;;;;;;;35.93;17.03;;;;;;;;;;10361063;28;20056;-80
2023/03/08 08:04:55;;;;;;;37.97;16.37;;;;;;;;;;10362074;28;20473;-79
2023/03/08 08:09:57;;;;;;;34.80;16.80;;;;;;;;;;10361959;28;20550;-82
2023/03/08 08:14:58;;;;;;;43.67;18.93;;;;;;;;;;10352305;28;20032;-79
2023/03/08 08:19:59;;;;;;;47.97;18.90;;;;;;;;;;10361399;28;20026;-83
2023/03/08 08:25:00;;;;;;;39.10;17.63;;;;;;;;;;10361131;28;20072;-79
2023/03/08 08:30:02;;;;;;;40.90;17.37;;;;;;;;;;10360103;28;20042;-80
2023/03/08 08:35:04;;;;;;;39.03;17.37;;;;;;;;;;10360188;28;20031;-82
2023/03/08 08:40:06;;;;;;;29.30;13.93;;;;;;;;;;10360452;28;20030;-79
2023/03/08 08:45:08;;;;;;;22.93;11.63;;;;;;;;;;10360399;28;20462;-79
2023/03/08 08:50:09;;;;;;;27.40;12.47;;;;;;;;;;10360344;28;20105;-79
2023/03/08 08:55:10;;;;;;;23.77;11.57;;;;;;;;;;10360237;28;20026;-80
2023/03/08 09:00:11;;;;;;;22.33;9.97;;;;;;;;;;10360684;28;20565;-79
2023/03/08 09:05:12;;;;;;;21.67;10.30;;;;;;;;;;10360805;28;20366;-79
2023/03/08 09:10:13;;;;;;;16.63;8.37;;;;;;;;;;10366092;28;20553;-79
2023/03/08 09:15:14;;;;;;;19.40;10.03;;;;;;;;;;10368119;28;20026;-80
2023/03/08 09:20:16;;;;;;;23.37;13.10;;;;;;;;;;10367250;28;20033;-79
2023/03/08 09:25:19;;;;;;;21.03;11.07;;;;;;;;;;10366922;28;20026;-79
2023/03/08 09:30:20;;;;;;;21.90;11.43;;;;;;;;;;10366563;28;20081;-79
2023/03/08 09:35:21;;;;;;;21.63;10.97;;;;;;;;;;10366507;28;20038;-79
2023/03/08 09:40:24;;;;;;;21.50;10.67;;;;;;;;;;10367551;28;20041;-79
2023/03/08 09:45:27;;;;;;;24.00;12.40;;;;;;;;;;10367137;28;20073;-79
2023/03/08 09:50:32;;;;;;;17.13;9.47;;;;;;;;;;10366379;28;20088;-79
2023/03/08 09:55:34;;;;;;;28.20;13.65;;;;;;;;;;10366294;28;20080;-79
2023/03/08 10:00:36;;;;;;;28.63;16.63;;;;;;;;;;10366682;28;20034;-81
2023/03/08 10:05:45;;;;;;;23.10;14.50;;;;;;;;;;10366772;28;20022;-81
2023/03/08 10:10:59;;;;;;;26.93;15.20;;;;;;;;;;10365994;28;20030;-80
2023/03/08 10:16:14;;;;;;;24.63;13.93;;;;;;;;;;10364421;28;20037;-79
2023/03/08 10:21:16;;;;;;;24.97;12.50;;;;;;;;;;10365820;28;20949;-78
2023/03/08 10:26:17;;;;;;;24.07;14.30;;;;;;;;;;10364818;28;20045;-79
2023/03/08 10:31:29;;;;;;;21.80;13.27;;;;;;;;;;10365159;28;20049;-82
2023/03/08 10:36:30;;;;;;;22.47;12.60;;;;;;;;;;10364571;28;20030;-79
2023/03/08 10:41:32;;;;;;;25.97;14.17;;;;;;;;;;10364245;28;20057;-79
2023/03/08 10:46:33;;;;;;;23.60;13.63;;;;;;;;;;10364426;28;20024;-79
2023/03/08 10:51:34;;;;;;;24.53;13.10;;;;;;;;;;10364304;28;20030;-79
2023/03/08 10:56:43;;;;;;;22.60;13.13;;;;;;;;;;10363874;28;20037;-80
2023/03/08 11:01:55;;;;;;;24.87;13.30;;;;;;;;;;10364839;28;20033;-80
2023/03/08 11:06:56;;;;;;;22.97;13.03;;;;;;;;;;10362723;28;20048;-81
2023/03/08 11:11:58;;;;;;;26.63;13.10;;;;;;;;;;10363830;28;20033;-80
2023/03/08 11:17:03;;;;;;;23.10;12.75;;;;;;;;;;10364102;28;20702;-81
2023/03/08 11:22:09;;;;;;;21.00;11.43;;;;;;;;;;10362902;28;20049;-83
2023/03/08 11:27:13;;;;;;;20.20;11.63;;;;;;;;;;10363197;28;20133;-79
2023/03/08 11:32:14;;;;;;;20.10;10.97;;;;;;;;;;10362810;28;20041;-81
2023/03/08 11:37:22;;;;;;;22.17;11.70;;;;;;;;;;10363235;28;20044;-79
2023/03/08 11:42:23;;;;;;;25.90;12.73;;;;;;;;;;10362309;28;20076;-79
2023/03/08 11:47:33;;;;;;;24.37;11.70;;;;;;;;;;10361979;28;20687;-80
2023/03/08 11:52:52;;;;;;;25.43;12.90;;;;;;;;;;10362292;28;20786;-81
2023/03/08 11:57:56;;;;;;;26.20;11.80;;;;;;;;;;10361545;28;20037;-79
2023/03/08 12:03:00;;;;;;;22.73;11.10;;;;;;;;;;10362137;28;20365;-79
2023/03/08 12:08:11;;;;;;;19.80;10.03;;;;;;;;;;10361219;28;20037;-79
2023/03/08 12:13:45;;;;;;;23.80;11.57;;;;;;;;;;10361975;28;20083;-78
2023/03/08 12:18:51;;;;;;;20.70;10.77;;;;;;;;;;10327415;28;20064;-78
2023/03/08 12:24:16;;;;;;;20.60;10.77;;;;;;;;;;10361621;28;20077;-80
2023/03/08 12:29:23;;;;;;;22.13;11.57;;;;;;;;;;10332872;28;20054;-79
2023/03/08 12:34:27;;;;;;;21.00;10.87;;;;;;;;;;10360368;28;20088;-79
2023/03/08 12:39:30;;;;;;;24.03;13.37;;;;;;;;;;10361762;28;20065;-78
2023/03/08 12:44:31;;;;;;;34.90;16.90;;;;;;;;;;10369594;28;20585;-79
2023/03/08 12:49:37;;;;;;;20.80;11.10;;;;;;;;;;10368285;28;20045;-81
2023/03/08 12:54:38;;;;;;;19.65;11.35;;;;;;;;;;10369014;28;20114;-79
2023/03/08 12:59:40;;;;;;;16.57;9.53;;;;;;;;;;10368596;28;20030;-79
2023/03/08 13:04:41;;;;;;;15.40;8.70;;;;;;;;;;10368247;28;20112;-79
2023/03/08 13:09:42;;;;;;;19.50;9.90;;;;;;;;;;10367426;28;20041;-78
2023/03/08 13:14:44;;;;;;;20.37;10.87;;;;;;;;;;10370937;28;20063;-79
2023/03/08 13:19:45;;;;;;;19.63;11.87;;;;;;;;;;10368015;28;20040;-81
2023/03/08 13:24:53;;;;;;;19.63;9.83;;;;;;;;;;10367525;28;20025;-79
2023/03/08 13:29:54;;;;;;;35.70;15.97;;;;;;;;;;10367440;28;20481;-79
2023/03/08 13:35:01;;;;;;;16.77;9.10;;;;;;;;;;10366931;28;20389;-82
2023/03/08 13:40:06;;;;;;;36.37;17.47;;;;;;;;;;10361765;28;20063;-80
2023/03/08 13:45:16;;;;;;;30.10;13.10;;;;;;;;;;10367101;28;20029;-78
2023/03/08 13:50:19;;;;;;;38.17;15.93;;;;;;;;;;10354935;28;20041;-83
2023/03/08 13:55:25;;;;;;;32.03;14.07;;;;;;;;;;10367139;28;20026;-77
2023/03/08 14:00:33;;;;;;;60.33;23.02;;;;;;;;;;10366779;28;20037;-78
2023/03/08 14:05:40;;;;;;;17.27;8.50;;;;;;;;;;10357249;28;20038;-79
2023/03/08 14:10:44;;;;;;;81.23;26.30;;;;;;;;;;10366109;28;20038;-78
2023/03/08 14:15:50;;;;;;;59.27;20.30;;;;;;;;;;10366636;28;20033;-80
2023/03/08 14:21:13;;;;;;;35.20;13.45;;;;;;;;;;10366262;28;20113;-79
2023/03/08 14:26:28;;;;;;;33.97;13.83;;;;;;;;;;10366248;28;20026;-79
2023/03/08 14:31:29;;;;;;;18.33;7.93;;;;;;;;;;10365582;28;20046;-78
2023/03/08 14:36:31;;;;;;;21.60;7.87;;;;;;;;;;10365401;28;20188;-79
2023/03/08 14:41:33;;;;;;;116.47;78.90;;;;;;;;;;10364920;28;20092;-78
2023/03/08 14:46:34;;;;;;;27.90;10.77;;;;;;;;;;10378928;28;20034;-79
2023/03/08 14:51:42;;;;;;;137.50;47.30;;;;;;;;;;10364928;28;20490;-78
2023/03/08 14:56:45;;;;;;;84.73;29.73;;;;;;;;;;10351896;28;20137;-81
2023/03/08 15:01:46;;;;;;;48.43;20.20;;;;;;;;;;10363370;28;20380;-78
2023/03/08 15:06:48;;;;;;;39.37;17.90;;;;;;;;;;10363830;28;20109;-80
2023/03/08 15:11:51;;;;;;;33.23;14.77;;;;;;;;;;10363744;28;20022;-78
2023/03/08 15:16:54;;;;;;;37.40;18.77;;;;;;;;;;10363754;28;20030;-79
2023/03/08 15:21:55;;;;;;;18.07;8.17;;;;;;;;;;10364192;28;20057;-81
2023/03/08 15:26:56;;;;;;;17.97;9.07;;;;;;;;;;10363612;28;20055;-78
2023/03/08 15:31:57;;;;;;;30.60;13.70;;;;;;;;;;10363343;28;20088;-78
2023/03/08 15:36:58;;;;;;;20.90;10.33;;;;;;;;;;10363594;28;20084;-79
2023/03/08 15:41:59;;;;;;;27.20;12.30;;;;;;;;;;10361695;28;20048;-78
2023/03/08 15:47:00;;;;;;;25.40;11.60;;;;;;;;;;10362781;28;20030;-81
2023/03/08 15:52:01;;;;;;;42.60;18.70;;;;;;;;;;10361532;28;20029;-80
2023/03/08 15:57:02;;;;;;;200.70;100.43;;;;;;;;;;10362944;28;20072;-80
2023/03/08 16:02:03;;;;;;;54.27;21.47;;;;;;;;;;10361923;28;20037;-78
2023/03/08 16:07:04;;;;;;;50.33;22.63;;;;;;;;;;10360575;28;20348;-78
2023/03/08 16:12:05;;;;;;;57.63;25.47;;;;;;;;;;10361925;28;20080;-78
2023/03/08 16:17:07;;;;;;;78.40;45.70;;;;;;;;;;10362105;28;20026;-82
2023/03/08 16:22:09;;;;;;;59.93;33.80;;;;;;;;;;10361423;28;20386;-79
2023/03/08 16:27:10;;;;;;;185.30;91.63;;;;;;;;;;10362164;28;20149;-82
2023/03/08 16:32:17;;;;;;;111.03;52.00;;;;;;;;;;10358765;28;20053;-80
2023/03/08 16:37:18;;;;;;;254.13;101.70;;;;;;;;;;10360944;28;20121;-79
2023/03/08 16:42:19;;;;;;;76.93;37.80;;;;;;;;;;10359382;28;20069;-79
2023/03/08 16:47:21;;;;;;;28.97;14.27;;;;;;;;;;10359827;28;20041;-78
2023/03/08 16:52:22;;;;;;;31.47;14.70;;;;;;;;;;10361902;28;20041;-78
2023/03/08 16:57:23;;;;;;;49.17;21.13;;;;;;;;;;10360156;28;20125;-78
2023/03/08 17:02:24;;;;;;;43.83;20.77;;;;;;;;;;10360551;28;20034;-78
2023/03/08 17:07:25;;;;;;;121.40;55.80;;;;;;;;;;10360916;28;20049;-78
2023/03/08 17:12:26;;;;;;;84.47;33.37;;;;;;;;;;10360841;28;20034;-78
2023/03/08 17:17:27;;;;;;;66.97;30.93;;;;;;;;;;10361042;28;20053;-79
2023/03/08 17:22:28;;;;;;;110.00;42.87;;;;;;;;;;10359093;28;20037;-79
2023/03/08 17:27:29;;;;;;;146.17;55.13;;;;;;;;;;10364356;28;20095;-80
2023/03/08 17:32:30;;;;;;;230.63;90.30;;;;;;;;;;10367026;28;20053;-78
2023/03/08 17:37:31;;;;;;;124.67;43.97;;;;;;;;;;10368188;28;20045;-80
2023/03/08 17:42:34;;;;;;;82.33;30.80;;;;;;;;;;10367378;28;20389;-79
2023/03/08 17:47:36;;;;;;;95.20;34.10;;;;;;;;;;10367154;28;20402;-78
2023/03/08 17:52:37;;;;;;;134.77;57.63;;;;;;;;;;10366484;28;20040;-80
2023/03/08 17:57:38;;;;;;;190.87;89.27;;;;;;;;;;10365887;28;20021;-79
2023/03/08 18:02:39;;;;;;;190.00;82.27;;;;;;;;;;10365539;28;20037;-81
2023/03/08 18:07:40;;;;;;;214.00;98.77;;;;;;;;;;10364749;28;20052;-83
2023/03/08 18:12:41;;;;;;;441.73;242.63;;;;;;;;;;10365659;28;20040;-81
2023/03/08 18:17:42;;;;;;;306.77;130.73;;;;;;;;;;10365568;28;20030;-78
2023/03/08 18:22:45;;;;;;;454.80;226.97;;;;;;;;;;10365836;28;20087;-78
2023/03/08 18:27:46;;;;;;;330.43;143.70;;;;;;;;;;10365469;28;20049;-78
2023/03/08 18:32:48;;;;;;;216.53;100.40;;;;;;;;;;10364883;28;20050;-82
2023/03/08 18:37:49;;;;;;;213.20;90.97;;;;;;;;;;10364939;28;20034;-83
2023/03/08 18:42:50;;;;;;;309.57;122.97;;;;;;;;;;10365171;28;20033;-78
2023/03/08 18:47:52;;;;;;;264.07;139.77;;;;;;;;;;10364171;28;20095;-78
2023/03/08 18:52:53;;;;;;;224.73;115.77;;;;;;;;;;10363324;28;20026;-81
2023/03/08 18:57:54;;;;;;;190.67;92.20;;;;;;;;;;10365302;28;20672;-82
2023/03/08 19:02:55;;;;;;;205.33;84.67;;;;;;;;;;10365085;28;20046;-81
2023/03/08 19:07:56;;;;;;;173.83;83.47;;;;;;;;;;10364776;28;20041;-81
2023/03/08 19:12:57;;;;;;;117.20;54.00;;;;;;;;;;10362410;28;20026;-78
2023/03/08 19:17:58;;;;;;;125.33;56.40;;;;;;;;;;10363104;28;20060;-79
2023/03/08 19:22:59;;;;;;;117.73;49.17;;;;;;;;;;10363890;28;20533;-78
2023/03/08 19:28:00;;;;;;;121.20;51.83;;;;;;;;;;10362837;28;20042;-78
2023/03/08 19:33:01;;;;;;;105.47;50.23;;;;;;;;;;10362260;28;20038;-79
2023/03/08 19:38:02;;;;;;;120.90;60.13;;;;;;;;;;10362985;28;20129;-79
2023/03/08 19:43:04;;;;;;;114.83;59.07;;;;;;;;;;10363587;28;20141;-79
2023/03/08 19:48:05;;;;;;;188.43;90.83;;;;;;;;;;10360503;28;20076;-79
2023/03/08 19:53:06;;;;;;;122.10;60.10;;;;;;;;;;10363020;28;20040;-80
2023/03/08 19:58:07;;;;;;;132.57;70.97;;;;;;;;;;10362179;28;20041;-81
2023/03/08 20:03:08;;;;;;;138.10;74.77;;;;;;;;;;10361650;28;20080;-78
2023/03/08 20:08:09;;;;;;;157.77;88.43;;;;;;;;;;10360731;28;20760;-81
2023/03/08 20:13:10;;;;;;;146.63;72.30;;;;;;;;;;10362230;28;20313;-79
2023/03/08 20:18:11;;;;;;;176.00;77.57;;;;;;;;;;10360726;28;20038;-79
2023/03/08 20:23:12;;;;;;;146.27;72.50;;;;;;;;;;10362059;28;20034;-78
2023/03/08 20:28:13;;;;;;;135.63;68.10;;;;;;;;;;10361742;28;20124;-81
2023/03/08 20:33:15;;;;;;;137.40;66.83;;;;;;;;;;10361407;28;20727;-79
2023/03/08 20:38:15;;;;;;;116.43;55.57;;;;;;;;;;10361219;28;20819;-80
2023/03/08 20:43:16;;;;;;;121.53;60.60;;;;;;;;;;10362671;28;20022;-80
2023/03/08 20:48:17;;;;;;;122.17;56.77;;;;;;;;;;10361080;28;20048;-79
2023/03/08 20:53:18;;;;;;;113.93;51.40;;;;;;;;;;10361705;28;20026;-78
2023/03/08 20:58:19;;;;;;;97.27;43.97;;;;;;;;;;10361907;28;20026;-82
2023/03/08 21:03:20;;;;;;;103.37;46.80;;;;;;;;;;10366425;28;20493;-79
2023/03/08 21:08:23;;;;;;;99.93;47.00;;;;;;;;;;10367546;28;20046;-82
2023/03/08 21:13:24;;;;;;;105.33;47.33;;;;;;;;;;10369086;28;20135;-78
2023/03/08 21:18:25;;;;;;;119.10;52.07;;;;;;;;;;10368777;28;20092;-78
2023/03/08 21:23:26;;;;;;;112.73;49.10;;;;;;;;;;10368481;28;20083;-79
2023/03/08 21:28:27;;;;;;;104.27;45.17;;;;;;;;;;10367740;28;20462;-79
2023/03/08 21:33:28;;;;;;;106.77;47.20;;;;;;;;;;10368326;28;20038;-78
2023/03/08 21:38:29;;;;;;;110.97;49.90;;;;;;;;;;10368949;28;20038;-78
2023/03/08 21:43:30;;;;;;;105.50;46.30;;;;;;;;;;10368238;28;20521;-78
2023/03/08 21:48:31;;;;;;;111.40;51.27;;;;;;;;;;10367160;28;20457;-78
2023/03/08 21:53:32;;;;;;;135.87;61.70;;;;;;;;;;10367781;28;20026;-78
2023/03/08 21:58:33;;;;;;;146.43;62.80;;;;;;;;;;10366924;28;20026;-81
2023/03/08 22:03:34;;;;;;;137.27;61.23;;;;;;;;;;10364848;28;20053;-81
2023/03/08 22:08:35;;;;;;;207.67;109.33;;;;;;;;;;10362971;28;20045;-79
2023/03/08 22:13:36;;;;;;;190.03;98.47;;;;;;;;;;10366537;28;20462;-79
2023/03/08 22:18:37;;;;;;;144.13;70.30;;;;;;;;;;10366794;28;20052;-80
2023/03/08 22:23:38;;;;;;;154.07;70.87;;;;;;;;;;10366626;28;20157;-79
2023/03/08 22:28:40;;;;;;;126.97;53.37;;;;;;;;;;10361059;28;20366;-79
2023/03/08 22:33:41;;;;;;;131.30;55.93;;;;;;;;;;10367150;28;20026;-79
2023/03/08 22:38:42;;;;;;;147.83;64.60;;;;;;;;;;10366196;28;20088;-82
2023/03/08 22:43:43;;;;;;;153.30;64.67;;;;;;;;;;10365731;28;20049;-82
2023/03/08 22:48:45;;;;;;;142.13;60.50;;;;;;;;;;10365493;28;20029;-80
2023/03/08 22:53:46;;;;;;;149.37;65.33;;;;;;;;;;10365312;28;20108;-79
2023/03/08 22:58:47;;;;;;;137.27;59.20;;;;;;;;;;10365056;28;20133;-80
2023/03/08 23:03:49;;;;;;;127.33;55.30;;;;;;;;;;10364634;28;20029;-79
2023/03/08 23:08:50;;;;;;;127.73;53.37;;;;;;;;;;10364344;28;20056;-81
2023/03/08 23:13:53;;;;;;;121.07;51.53;;;;;;;;;;10364232;28;20119;-80
2023/03/08 23:18:54;;;;;;;133.73;53.37;;;;;;;;;;10364553;28;20034;-81
2023/03/08 23:24:00;;;;;;;122.93;51.03;;;;;;;;;;10363886;28;20034;-79
2023/03/08 23:29:04;;;;;;;129.33;53.87;;;;;;;;;;10363677;28;20054;-82
2023/03/08 23:34:05;;;;;;;131.23;56.83;;;;;;;;;;10364215;28;20037;-79
2023/03/08 23:39:07;;;;;;;152.13;62.80;;;;;;;;;;10363770;28;20037;-81
2023/03/08 23:44:09;;;;;;;118.90;50.23;;;;;;;;;;10364044;28;20034;-79
2023/03/08 23:49:10;;;;;;;129.53;51.57;;;;;;;;;;10363753;28;20100;-81
2023/03/08 23:54:11;;;;;;;131.37;54.53;;;;;;;;;;10363309;28;20554;-78
2023/03/08 23:59:15;;;;;;;130.10;53.50;;;;;;;;;;10363721;28;20116;-79
